sensor_id;sensor_type;location;lat;lon;timestamp;pressure;altitude;pressure_sealevel;temperature;humidity
27587;BME280;15019;49.002;8.420;2022-07-29T00:00:36;99906.69;;;22.22;80.19
27587;BME280;15019;49.002;8.420;2022-07-29T00:03:02;99906.41;;;22.27;80.40
27587;BME280;15019;49.002;8.420;2022-07-29T00:05:27;99908.34;;;22.23;80.58
27587;BME280;15019;49.002;8.420;2022-07-29T00:07:52;99903.75;;;22.28;80.74
27587;BME280;15019;49.002;8.420;2022-07-29T00:10:18;99898.75;;;22.25;80.47
27587;BME280;15019;49.002;8.420;2022-07-29T00:12:43;99902.84;;;22.30;80.45
27587;BME280;15019;49.002;8.420;2022-07-29T00:15:08;99903.06;;;22.25;80.69
27587;BME280;15019;49.002;8.420;2022-07-29T00:17:34;99894.94;;;22.33;80.81
27587;BME280;15019;49.002;8.420;2022-07-29T00:19:59;99901.91;;;22.31;80.41
27587;BME280;15019;49.002;8.420;2022-07-29T00:22:25;99894.06;;;22.16;81.67
27587;BME280;15019;49.002;8.420;2022-07-29T00:24:50;99891.75;;;22.12;81.56
27587;BME280;15019;49.002;8.420;2022-07-29T00:27:16;99896.25;;;22.08;82.25
27587;BME280;15019;49.002;8.420;2022-07-29T00:29:41;99893.09;;;22.03;82.28
27587;BME280;15019;49.002;8.420;2022-07-29T00:32:07;99891.69;;;21.96;83.05
27587;BME280;15019;49.002;8.420;2022-07-29T00:34:32;99888.09;;;22.00;82.66
27587;BME280;15019;49.002;8.420;2022-07-29T00:36:57;99888.22;;;21.97;82.88
27587;BME280;15019;49.002;8.420;2022-07-29T00:39:23;99885.34;;;22.03;82.39
27587;BME280;15019;49.002;8.420;2022-07-29T00:41:49;99887.94;;;22.03;82.50
27587;BME280;15019;49.002;8.420;2022-07-29T00:44:14;99888.72;;;22.04;82.52
27587;BME280;15019;49.002;8.420;2022-07-29T00:46:40;99881.81;;;22.04;82.59
27587;BME280;15019;49.002;8.420;2022-07-29T00:49:05;99872.44;;;22.03;82.98
27587;BME280;15019;49.002;8.420;2022-07-29T00:51:31;99872.59;;;22.00;82.84
27587;BME280;15019;49.002;8.420;2022-07-29T00:53:56;99875.09;;;22.02;82.82
27587;BME280;15019;49.002;8.420;2022-07-29T00:56:22;99870.00;;;22.00;83.01
27587;BME280;15019;49.002;8.420;2022-07-29T00:58:47;99877.59;;;22.03;82.85
27587;BME280;15019;49.002;8.420;2022-07-29T01:01:13;99880.06;;;22.05;82.36
27587;BME280;15019;49.002;8.420;2022-07-29T01:03:38;99876.22;;;21.96;83.40
27587;BME280;15019;49.002;8.420;2022-07-29T01:06:04;99876.38;;;21.93;83.74
27587;BME280;15019;49.002;8.420;2022-07-29T01:08:31;99881.72;;;21.90;84.08
27587;BME280;15019;49.002;8.420;2022-07-29T01:10:58;99874.13;;;21.87;84.04
27587;BME280;15019;49.002;8.420;2022-07-29T01:13:24;99877.31;;;21.92;84.19
27587;BME280;15019;49.002;8.420;2022-07-29T01:15:56;99872.19;;;21.75;85.48
27587;BME280;15019;49.002;8.420;2022-07-29T01:18:30;99876.16;;;21.65;86.40
27587;BME280;15019;49.002;8.420;2022-07-29T01:29:27;99859.97;;;21.45;86.95
27587;BME280;15019;49.002;8.420;2022-07-29T01:32:07;99858.16;;;21.47;86.93
27587;BME280;15019;49.002;8.420;2022-07-29T01:34:55;99866.47;;;21.52;86.27
27587;BME280;15019;49.002;8.420;2022-07-29T01:40:02;99856.63;;;21.43;86.99
27587;BME280;15019;49.002;8.420;2022-07-29T01:42:34;99861.66;;;21.46;86.76
27587;BME280;15019;49.002;8.420;2022-07-29T01:45:30;99862.56;;;21.45;87.01
27587;BME280;15019;49.002;8.420;2022-07-29T01:48:21;99868.47;;;21.47;87.37
27587;BME280;15019;49.002;8.420;2022-07-29T01:51:07;99863.34;;;21.30;88.44
27587;BME280;15019;49.002;8.420;2022-07-29T01:54:08;99871.28;;;21.08;89.90
27587;BME280;15019;49.002;8.420;2022-07-29T01:56:37;99875.09;;;21.01;90.88
27587;BME280;15019;49.002;8.420;2022-07-29T01:59:04;99870.47;;;20.91;90.92
27587;BME280;15019;49.002;8.420;2022-07-29T02:01:32;99877.59;;;21.03;90.78
27587;BME280;15019;49.002;8.420;2022-07-29T02:03:59;99877.59;;;21.03;91.21
27587;BME280;15019;49.002;8.420;2022-07-29T02:06:27;99880.56;;;20.95;91.45
27587;BME280;15019;49.002;8.420;2022-07-29T02:08:54;99880.69;;;20.75;92.01
27587;BME280;15019;49.002;8.420;2022-07-29T02:11:21;99886.75;;;20.74;92.31
27587;BME280;15019;49.002;8.420;2022-07-29T02:13:47;99886.50;;;20.61;93.83
27587;BME280;15019;49.002;8.420;2022-07-29T02:16:14;99887.41;;;20.60;93.41
27587;BME280;15019;49.002;8.420;2022-07-29T02:18:43;99891.97;;;20.55;94.33
27587;BME280;15019;49.002;8.420;2022-07-29T02:21:11;99881.66;;;20.55;94.01
27587;BME280;15019;49.002;8.420;2022-07-29T02:23:38;99886.81;;;20.55;94.00
27587;BME280;15019;49.002;8.420;2022-07-29T02:26:04;99892.09;;;20.52;94.39
27587;BME280;15019;49.002;8.420;2022-07-29T02:28:30;99887.38;;;20.43;94.76
27587;BME280;15019;49.002;8.420;2022-07-29T02:30:59;99880.56;;;20.42;94.80
27587;BME280;15019;49.002;8.420;2022-07-29T02:33:26;99881.34;;;20.44;95.39
27587;BME280;15019;49.002;8.420;2022-07-29T02:35:52;99877.16;;;20.41;95.20
27587;BME280;15019;49.002;8.420;2022-07-29T02:38:21;99874.72;;;20.38;95.39
27587;BME280;15019;49.002;8.420;2022-07-29T02:40:48;99870.66;;;20.33;95.93
27587;BME280;15019;49.002;8.420;2022-07-29T02:43:16;99868.03;;;20.16;97.00
27587;BME280;15019;49.002;8.420;2022-07-29T02:45:42;99863.84;;;20.13;97.57
27587;BME280;15019;49.002;8.420;2022-07-29T02:48:13;99871.09;;;20.05;97.76
27587;BME280;15019;49.002;8.420;2022-07-29T02:50:51;99877.19;;;20.02;98.13
27587;BME280;15019;49.002;8.420;2022-07-29T02:53:23;99878.88;;;20.03;98.05
27587;BME280;15019;49.002;8.420;2022-07-29T02:56:02;99885.69;;;20.04;98.02
27587;BME280;15019;49.002;8.420;2022-07-29T02:58:34;99883.88;;;20.06;97.98
27587;BME280;15019;49.002;8.420;2022-07-29T03:01:08;99877.19;;;20.02;98.15
27587;BME280;15019;49.002;8.420;2022-07-29T03:03:37;99879.28;;;19.94;99.24
27587;BME280;15019;49.002;8.420;2022-07-29T03:06:04;99894.72;;;19.94;99.23
27587;BME280;15019;49.002;8.420;2022-07-29T03:08:31;99890.41;;;19.76;99.96
27587;BME280;15019;49.002;8.420;2022-07-29T03:10:57;99893.75;;;19.78;100.00
27587;BME280;15019;49.002;8.420;2022-07-29T03:13:24;99888.63;;;19.78;100.00
27587;BME280;15019;49.002;8.420;2022-07-29T03:15:50;99890.41;;;19.76;100.00
27587;BME280;15019;49.002;8.420;2022-07-29T03:18:17;99894.44;;;19.82;100.00
27587;BME280;15019;49.002;8.420;2022-07-29T03:20:43;99896.09;;;19.83;99.92
27587;BME280;15019;49.002;8.420;2022-07-29T03:23:08;99897.22;;;19.77;100.00
27587;BME280;15019;49.002;8.420;2022-07-29T03:25:34;99897.34;;;19.74;100.00
27587;BME280;15019;49.002;8.420;2022-07-29T03:27:59;99898.91;;;19.78;99.96
27587;BME280;15019;49.002;8.420;2022-07-29T03:30:25;99897.78;;;19.84;99.86
27587;BME280;15019;49.002;8.420;2022-07-29T03:32:51;99894.19;;;19.88;99.55
27587;BME280;15019;49.002;8.420;2022-07-29T03:35:17;99898.28;;;19.92;99.56
27587;BME280;15019;49.002;8.420;2022-07-29T03:37:43;99898.22;;;19.93;99.55
27587;BME280;15019;49.002;8.420;2022-07-29T03:40:10;99891.59;;;19.88;99.60
27587;BME280;15019;49.002;8.420;2022-07-29T03:42:39;99894.44;;;19.82;99.43
27587;BME280;15019;49.002;8.420;2022-07-29T03:45:07;99893.19;;;19.71;100.00
27587;BME280;15019;49.002;8.420;2022-07-29T03:47:35;99898.31;;;19.71;100.00
27587;BME280;15019;49.002;8.420;2022-07-29T03:50:07;99906.13;;;19.70;100.00
27587;BME280;15019;49.002;8.420;2022-07-29T03:52:34;99898.41;;;19.70;100.00
27587;BME280;15019;49.002;8.420;2022-07-29T03:55:00;99898.47;;;19.68;100.00
27587;BME280;15019;49.002;8.420;2022-07-29T03:57:28;99899.44;;;19.66;100.00
27587;BME280;15019;49.002;8.420;2022-07-29T03:59:55;99898.03;;;19.59;100.00
27587;BME280;15019;49.002;8.420;2022-07-29T04:02:21;99904.97;;;19.57;100.00
27587;BME280;15019;49.002;8.420;2022-07-29T04:04:47;99904.16;;;19.56;100.00
27587;BME280;15019;49.002;8.420;2022-07-29T04:07:14;99911.81;;;19.58;100.00
27587;BME280;15019;49.002;8.420;2022-07-29T04:09:39;99908.56;;;19.53;100.00
27587;BME280;15019;49.002;8.420;2022-07-29T04:12:05;99905.34;;;19.48;100.00
27587;BME280;15019;49.002;8.420;2022-07-29T04:14:32;99906.72;;;19.36;100.00
27587;BME280;15019;49.002;8.420;2022-07-29T04:16:58;99908.44;;;19.35;100.00
27587;BME280;15019;49.002;8.420;2022-07-29T04:19:23;99916.66;;;19.44;100.00
27587;BME280;15019;49.002;8.420;2022-07-29T04:21:48;99914.09;;;19.44;100.00
27587;BME280;15019;49.002;8.420;2022-07-29T04:24:14;99916.03;;;19.38;100.00
27587;BME280;15019;49.002;8.420;2022-07-29T04:26:39;99917.66;;;19.39;100.00
27587;BME280;15019;49.002;8.420;2022-07-29T04:29:04;99914.09;;;19.44;100.00
27587;BME280;15019;49.002;8.420;2022-07-29T04:31:30;99920.00;;;19.46;100.00
27587;BME280;15019;49.002;8.420;2022-07-29T04:33:55;99920.78;;;19.48;100.00
27587;BME280;15019;49.002;8.420;2022-07-29T04:36:20;99927.47;;;19.52;100.00
27587;BME280;15019;49.002;8.420;2022-07-29T04:38:45;99927.34;;;19.55;100.00
27587;BME280;15019;49.002;8.420;2022-07-29T04:41:11;99931.94;;;19.48;100.00
27587;BME280;15019;49.002;8.420;2022-07-29T04:43:36;99931.06;;;19.48;100.00
27587;BME280;15019;49.002;8.420;2022-07-29T04:46:03;99936.03;;;19.52;100.00
27587;BME280;15019;49.002;8.420;2022-07-29T04:48:28;99934.53;;;19.47;100.00
27587;BME280;15019;49.002;8.420;2022-07-29T04:50:54;99928.78;;;19.40;100.00
27587;BME280;15019;49.002;8.420;2022-07-29T04:53:19;99931.19;;;19.45;100.00
27587;BME280;15019;49.002;8.420;2022-07-29T04:55:44;99939.69;;;19.47;100.00
27587;BME280;15019;49.002;8.420;2022-07-29T04:58:10;99938.13;;;19.43;100.00
27587;BME280;15019;49.002;8.420;2022-07-29T05:00:35;99938.41;;;19.36;100.00
27587;BME280;15019;49.002;8.420;2022-07-29T05:03:00;99934.78;;;19.41;100.00
27587;BME280;15019;49.002;8.420;2022-07-29T05:05:26;99939.91;;;19.41;100.00
27587;BME280;15019;49.002;8.420;2022-07-29T05:07:51;99943.53;;;19.36;100.00
27587;BME280;15019;49.002;8.420;2022-07-29T05:10:16;99941.84;;;19.35;100.00
27587;BME280;15019;49.002;8.420;2022-07-29T05:12:42;99944.22;;;19.40;100.00
27587;BME280;15019;49.002;8.420;2022-07-29T05:15:08;99940.41;;;19.28;100.00
27587;BME280;15019;49.002;8.420;2022-07-29T05:17:33;99948.88;;;19.52;100.00
27587;BME280;15019;49.002;8.420;2022-07-29T05:19:58;99952.72;;;19.42;100.00
27587;BME280;15019;49.002;8.420;2022-07-29T05:22:24;99951.75;;;19.45;100.00
27587;BME280;15019;49.002;8.420;2022-07-29T05:24:49;99951.28;;;19.57;100.00
27587;BME280;15019;49.002;8.420;2022-07-29T05:27:15;99957.94;;;19.61;100.00
27587;BME280;15019;49.002;8.420;2022-07-29T05:29:40;99960.22;;;19.68;100.00
27587;BME280;15019;49.002;8.420;2022-07-29T05:32:05;99957.56;;;19.70;100.00
27587;BME280;15019;49.002;8.420;2022-07-29T05:34:31;99958.47;;;19.69;100.00
27587;BME280;15019;49.002;8.420;2022-07-29T05:36:57;99955.22;;;19.84;98.69
27587;BME280;15019;49.002;8.420;2022-07-29T05:39:23;99959.34;;;19.88;98.19
27587;BME280;15019;49.002;8.420;2022-07-29T05:41:48;99968.75;;;20.08;98.91
27587;BME280;15019;49.002;8.420;2022-07-29T05:44:13;99971.63;;;20.21;98.66
27587;BME280;15019;49.002;8.420;2022-07-29T05:46:39;99972.78;;;20.14;97.27
27587;BME280;15019;49.002;8.420;2022-07-29T05:49:04;99977.81;;;20.17;95.31
27587;BME280;15019;49.002;8.420;2022-07-29T05:51:30;99985.91;;;20.28;94.47
27587;BME280;15019;49.002;8.420;2022-07-29T05:53:55;99981.28;;;20.16;93.74
27587;BME280;15019;49.002;8.420;2022-07-29T05:56:20;99977.91;;;20.34;93.08
27587;BME280;15019;49.002;8.420;2022-07-29T05:58:46;99983.84;;;20.36;93.79
27587;BME280;15019;49.002;8.420;2022-07-29T06:01:11;99986.09;;;20.43;91.96
27587;BME280;15019;49.002;8.420;2022-07-29T06:03:36;99983.38;;;20.26;90.65
27587;BME280;15019;49.002;8.420;2022-07-29T06:06:01;99987.81;;;20.43;91.55
27587;BME280;15019;49.002;8.420;2022-07-29T06:08:27;99987.66;;;20.46;90.89
27587;BME280;15019;49.002;8.420;2022-07-29T06:10:52;99998.47;;;20.54;90.02
27587;BME280;15019;49.002;8.420;2022-07-29T06:13:17;99999.16;;;20.76;89.29
27587;BME280;15019;49.002;8.420;2022-07-29T06:15:43;100006.28;;;20.89;89.48
27587;BME280;15019;49.002;8.420;2022-07-29T06:18:08;100006.47;;;21.03;86.96
27587;BME280;15019;49.002;8.420;2022-07-29T06:20:33;100000.31;;;21.24;84.56
27587;BME280;15019;49.002;8.420;2022-07-29T06:22:59;100011.41;;;21.43;84.05
27587;BME280;15019;49.002;8.420;2022-07-29T06:25:25;100009.38;;;21.14;84.27
27587;BME280;15019;49.002;8.420;2022-07-29T06:27:50;100007.03;;;21.28;84.15
27587;BME280;15019;49.002;8.420;2022-07-29T06:30:16;100002.13;;;21.22;83.41
27587;BME280;15019;49.002;8.420;2022-07-29T06:32:41;100010.81;;;21.55;84.81
27587;BME280;15019;49.002;8.420;2022-07-29T06:35:07;100014.75;;;21.80;82.78
27587;BME280;15019;49.002;8.420;2022-07-29T06:37:32;100019.31;;;21.58;82.60
27587;BME280;15019;49.002;8.420;2022-07-29T06:39:57;100005.69;;;22.06;82.04
27587;BME280;15019;49.002;8.420;2022-07-29T06:42:23;100007.25;;;22.41;79.35
27587;BME280;15019;49.002;8.420;2022-07-29T06:44:48;100012.03;;;22.80;76.90
27587;BME280;15019;49.002;8.420;2022-07-29T06:47:13;100021.75;;;22.59;77.35
27587;BME280;15019;49.002;8.420;2022-07-29T06:49:38;100018.50;;;22.40;77.62
27587;BME280;15019;49.002;8.420;2022-07-29T06:52:04;100015.19;;;22.54;77.30
27587;BME280;15019;49.002;8.420;2022-07-29T06:54:29;100018.59;;;22.70;75.94
27587;BME280;15019;49.002;8.420;2022-07-29T06:56:55;100013.94;;;22.61;78.82
27587;BME280;15019;49.002;8.420;2022-07-29T06:59:20;100024.66;;;22.86;76.50
27587;BME280;15019;49.002;8.420;2022-07-29T07:01:45;100023.91;;;22.84;76.87
27587;BME280;15019;49.002;8.420;2022-07-29T07:04:11;100018.81;;;22.98;75.35
27587;BME280;15019;49.002;8.420;2022-07-29T07:06:37;100025.28;;;23.06;75.26
27587;BME280;15019;49.002;8.420;2022-07-29T07:09:02;100024.69;;;23.46;74.23
27587;BME280;15019;49.002;8.420;2022-07-29T07:11:28;100037.00;;;23.73;71.15
27587;BME280;15019;49.002;8.420;2022-07-29T07:13:53;100032.31;;;23.93;72.81
27587;BME280;15019;49.002;8.420;2022-07-29T07:16:18;100027.13;;;24.07;72.07
27587;BME280;15019;49.002;8.420;2022-07-29T07:18:44;100041.63;;;24.26;68.97
27587;BME280;15019;49.002;8.420;2022-07-29T07:21:09;100035.19;;;23.89;70.71
27587;BME280;15019;49.002;8.420;2022-07-29T07:23:34;100036.47;;;23.82;71.67
27587;BME280;15019;49.002;8.420;2022-07-29T07:26:00;100039.41;;;24.34;69.51
27587;BME280;15019;49.002;8.420;2022-07-29T07:28:25;100045.81;;;24.69;68.97
27587;BME280;15019;49.002;8.420;2022-07-29T07:30:51;100049.47;;;24.53;68.11
27587;BME280;15019;49.002;8.420;2022-07-29T07:33:16;100045.16;;;24.94;66.96
27587;BME280;15019;49.002;8.420;2022-07-29T07:35:41;100045.72;;;25.39;63.30
27587;BME280;15019;49.002;8.420;2022-07-29T07:38:07;100049.13;;;26.17;60.43
27587;BME280;15019;49.002;8.420;2022-07-29T07:40:32;100048.72;;;26.23;60.64
27587;BME280;15019;49.002;8.420;2022-07-29T07:42:58;100055.06;;;26.19;61.95
27587;BME280;15019;49.002;8.420;2022-07-29T07:45:23;100045.16;;;26.62;60.01
27587;BME280;15019;49.002;8.420;2022-07-29T07:47:49;100050.28;;;26.25;59.10
27587;BME280;15019;49.002;8.420;2022-07-29T07:50:18;100046.03;;;25.47;62.68
27587;BME280;15019;49.002;8.420;2022-07-29T07:52:55;100045.81;;;26.40;59.96
27587;BME280;15019;49.002;8.420;2022-07-29T07:55:20;100059.00;;;27.82;58.83
27587;BME280;15019;49.002;8.420;2022-07-29T07:57:46;100048.09;;;26.57;56.04
27587;BME280;15019;49.002;8.420;2022-07-29T08:00:13;100037.19;;;25.89;59.55
27587;BME280;15019;49.002;8.420;2022-07-29T08:02:39;100051.91;;;25.24;62.53
27587;BME280;15019;49.002;8.420;2022-07-29T08:05:06;100044.66;;;25.29;61.05
27587;BME280;15019;49.002;8.420;2022-07-29T08:07:31;100054.03;;;25.71;63.90
27587;BME280;15019;49.002;8.420;2022-07-29T08:09:57;100057.06;;;26.41;61.70
27587;BME280;15019;49.002;8.420;2022-07-29T08:12:22;100060.78;;;26.49;60.04
27587;BME280;15019;49.002;8.420;2022-07-29T08:14:47;100055.19;;;26.05;59.01
27587;BME280;15019;49.002;8.420;2022-07-29T08:17:13;100048.72;;;25.98;61.18
27587;BME280;15019;49.002;8.420;2022-07-29T08:19:38;100058.69;;;25.78;58.83
27587;BME280;15019;49.002;8.420;2022-07-29T08:22:03;100053.13;;;26.35;57.89
27587;BME280;15019;49.002;8.420;2022-07-29T08:24:29;100045.00;;;26.14;58.10
27587;BME280;15019;49.002;8.420;2022-07-29T08:26:54;100057.88;;;26.54;58.11
27587;BME280;15019;49.002;8.420;2022-07-29T08:29:19;100058.78;;;27.02;53.54
27587;BME280;15019;49.002;8.420;2022-07-29T08:31:45;100073.22;;;28.00;52.69
27587;BME280;15019;49.002;8.420;2022-07-29T08:34:10;100073.50;;;28.19;48.67
27587;BME280;15019;49.002;8.420;2022-07-29T08:36:35;100072.22;;;28.69;48.97
27587;BME280;15019;49.002;8.420;2022-07-29T08:39:02;100076.16;;;29.18;46.93
27587;BME280;15019;49.002;8.420;2022-07-29T08:41:27;100074.56;;;28.17;47.59
27587;BME280;15019;49.002;8.420;2022-07-29T08:43:53;100073.38;;;28.65;46.22
27587;BME280;15019;49.002;8.420;2022-07-29T08:46:22;100074.69;;;29.57;44.50
27587;BME280;15019;49.002;8.420;2022-07-29T08:48:47;100073.31;;;29.74;44.74
27587;BME280;15019;49.002;8.420;2022-07-29T08:51:18;100072.84;;;30.71;42.74
27587;BME280;15019;49.002;8.420;2022-07-29T08:53:46;100073.91;;;29.98;44.56
27587;BME280;15019;49.002;8.420;2022-07-29T08:56:13;100066.75;;;30.31;42.74
27587;BME280;15019;49.002;8.420;2022-07-29T08:58:39;100071.56;;;29.42;43.55
27587;BME280;15019;49.002;8.420;2022-07-29T09:01:04;100079.00;;;29.15;43.92
27587;BME280;15019;49.002;8.420;2022-07-29T09:03:32;100068.56;;;28.38;44.12
27587;BME280;15019;49.002;8.420;2022-07-29T09:05:59;100071.94;;;28.95;45.40
27587;BME280;15019;49.002;8.420;2022-07-29T09:08:24;100065.03;;;30.50;41.33
27587;BME280;15019;49.002;8.420;2022-07-29T09:10:50;100068.31;;;30.43;40.87
27587;BME280;15019;49.002;8.420;2022-07-29T09:13:15;100076.50;;;31.18;40.09
27587;BME280;15019;49.002;8.420;2022-07-29T09:15:40;100071.03;;;30.41;40.44
27587;BME280;15019;49.002;8.420;2022-07-29T09:18:06;100065.50;;;31.15;39.81
27587;BME280;15019;49.002;8.420;2022-07-29T09:20:31;100079.47;;;32.10;39.09
27587;BME280;15019;49.002;8.420;2022-07-29T09:22:56;100068.50;;;31.39;38.55
27587;BME280;15019;49.002;8.420;2022-07-29T09:25:32;100073.13;;;32.03;37.32
27587;BME280;15019;49.002;8.420;2022-07-29T09:28:10;100081.34;;;31.42;37.92
27587;BME280;15019;49.002;8.420;2022-07-29T09:30:53;100065.22;;;32.13;38.05
27587;BME280;15019;49.002;8.420;2022-07-29T09:33:21;100067.19;;;32.75;36.32
27587;BME280;15019;49.002;8.420;2022-07-29T09:35:59;100062.69;;;32.58;35.41
27587;BME280;15019;49.002;8.420;2022-07-29T09:38:24;100058.16;;;33.23;35.23
27587;BME280;15019;49.002;8.420;2022-07-29T09:41:00;100060.53;;;32.98;36.65
27587;BME280;15019;49.002;8.420;2022-07-29T09:43:26;100056.31;;;31.96;39.34
27587;BME280;15019;49.002;8.420;2022-07-29T09:45:51;100056.19;;;30.72;38.01
27587;BME280;15019;49.002;8.420;2022-07-29T09:48:24;100059.13;;;31.75;39.30
27587;BME280;15019;49.002;8.420;2022-07-29T09:50:50;100058.59;;;31.14;38.56
27587;BME280;15019;49.002;8.420;2022-07-29T09:53:35;100063.88;;;32.46;38.66
27587;BME280;15019;49.002;8.420;2022-07-29T09:56:00;100064.25;;;32.23;36.14
27587;BME280;15019;49.002;8.420;2022-07-29T09:58:26;100056.22;;;31.01;39.12
27587;BME280;15019;49.002;8.420;2022-07-29T10:00:53;100055.69;;;31.55;37.17
27587;BME280;15019;49.002;8.420;2022-07-29T10:03:19;100065.22;;;31.18;37.97
27587;BME280;15019;49.002;8.420;2022-07-29T10:05:45;100058.56;;;31.72;37.46
27587;BME280;15019;49.002;8.420;2022-07-29T10:08:11;100055.28;;;31.12;38.68
27587;BME280;15019;49.002;8.420;2022-07-29T10:10:39;100049.69;;;30.67;38.63
27587;BME280;15019;49.002;8.420;2022-07-29T10:13:07;100057.19;;;31.77;38.94
27587;BME280;15019;49.002;8.420;2022-07-29T10:15:34;100053.75;;;32.78;35.67
27587;BME280;15019;49.002;8.420;2022-07-29T10:17:59;100064.75;;;33.27;34.72
27587;BME280;15019;49.002;8.420;2022-07-29T10:20:26;100062.13;;;33.44;35.27
27587;BME280;15019;49.002;8.420;2022-07-29T10:22:53;100049.47;;;33.66;35.55
27587;BME280;15019;49.002;8.420;2022-07-29T10:25:19;100055.50;;;33.58;34.33
27587;BME280;15019;49.002;8.420;2022-07-29T10:27:47;100052.72;;;33.42;34.33
27587;BME280;15019;49.002;8.420;2022-07-29T10:30:15;100044.31;;;33.56;35.31
27587;BME280;15019;49.002;8.420;2022-07-29T10:41:33;100034.41;;;33.15;34.45
27587;BME280;15019;49.002;8.420;2022-07-29T10:44:07;100030.44;;;32.48;34.36
27587;BME280;15019;49.002;8.420;2022-07-29T10:46:37;100022.09;;;33.33;32.58
27587;BME280;15019;49.002;8.420;2022-07-29T10:49:10;100025.41;;;33.78;32.49
27587;BME280;15019;49.002;8.420;2022-07-29T10:59:37;100033.59;;;34.43;31.18
27587;BME280;15019;49.002;8.420;2022-07-29T11:02:40;100034.72;;;33.12;32.27
27587;BME280;15019;49.002;8.420;2022-07-29T11:05:11;100028.78;;;32.47;33.74
27587;BME280;15019;49.002;8.420;2022-07-29T11:07:37;100020.09;;;32.19;33.76
27587;BME280;15019;49.002;8.420;2022-07-29T11:15:10;100020.22;;;32.72;33.43
27587;BME280;15019;49.002;8.420;2022-07-29T11:23:00;100012.94;;;33.63;33.67
27587;BME280;15019;49.002;8.420;2022-07-29T11:25:26;100008.59;;;33.28;33.92
27587;BME280;15019;49.002;8.420;2022-07-29T11:27:53;100018.56;;;32.44;33.06
27587;BME280;15019;49.002;8.420;2022-07-29T11:30:19;100022.13;;;31.69;34.63
27587;BME280;15019;49.002;8.420;2022-07-29T11:32:45;100019.00;;;32.39;35.88
27587;BME280;15019;49.002;8.420;2022-07-29T11:37:35;100015.63;;;33.71;32.05
27587;BME280;15019;49.002;8.420;2022-07-29T11:47:29;100012.44;;;31.79;34.42
27587;BME280;15019;49.002;8.420;2022-07-29T11:50:00;100021.53;;;31.94;36.38
27587;BME280;15019;49.002;8.420;2022-07-29T11:52:42;100020.09;;;32.19;33.99
27587;BME280;15019;49.002;8.420;2022-07-29T11:55:10;100010.94;;;32.23;34.76
27587;BME280;15019;49.002;8.420;2022-07-29T11:57:36;100012.59;;;32.14;34.40
27587;BME280;15019;49.002;8.420;2022-07-29T12:00:04;100008.09;;;31.50;35.37
27587;BME280;15019;49.002;8.420;2022-07-29T12:02:41;100014.19;;;31.22;36.14
27587;BME280;15019;49.002;8.420;2022-07-29T12:05:07;100004.94;;;31.18;37.46
27587;BME280;15019;49.002;8.420;2022-07-29T12:07:34;100010.88;;;31.01;37.16
27587;BME280;15019;49.002;8.420;2022-07-29T12:09:59;100009.69;;;30.55;38.58
27587;BME280;15019;49.002;8.420;2022-07-29T12:12:26;100014.06;;;30.45;38.39
27587;BME280;15019;49.002;8.420;2022-07-29T12:14:51;100017.19;;;30.69;38.32
27587;BME280;15019;49.002;8.420;2022-07-29T12:17:26;100021.19;;;30.43;38.86
27587;BME280;15019;49.002;8.420;2022-07-29T12:19:53;100028.03;;;29.94;38.13
27587;BME280;15019;49.002;8.420;2022-07-29T12:22:33;100012.84;;;29.88;37.59
27587;BME280;15019;49.002;8.420;2022-07-29T12:25:12;100005.38;;;30.44;38.46
27587;BME280;15019;49.002;8.420;2022-07-29T12:27:38;100007.81;;;30.96;37.09
27587;BME280;15019;49.002;8.420;2022-07-29T12:30:06;100005.50;;;30.43;36.91
27587;BME280;15019;49.002;8.420;2022-07-29T12:32:40;100010.59;;;30.35;36.09
27587;BME280;15019;49.002;8.420;2022-07-29T12:35:08;100015.00;;;30.44;37.52
27587;BME280;15019;49.002;8.420;2022-07-29T12:37:35;100007.81;;;30.76;39.71
27587;BME280;15019;49.002;8.420;2022-07-29T12:40:02;100001.53;;;30.48;36.45
27587;BME280;15019;49.002;8.420;2022-07-29T12:42:28;100005.75;;;30.30;36.56
27587;BME280;15019;49.002;8.420;2022-07-29T12:44:53;100008.69;;;30.06;36.61
27587;BME280;15019;49.002;8.420;2022-07-29T12:47:19;99997.19;;;30.18;38.73
27587;BME280;15019;49.002;8.420;2022-07-29T12:49:45;100003.28;;;30.29;36.76
27587;BME280;15019;49.002;8.420;2022-07-29T12:52:32;100001.63;;;30.28;39.25
27587;BME280;15019;49.002;8.420;2022-07-29T12:54:58;99998.63;;;30.42;36.52
27587;BME280;15019;49.002;8.420;2022-07-29T12:57:24;100000.22;;;30.24;36.38
27587;BME280;15019;49.002;8.420;2022-07-29T13:00:10;99988.75;;;30.55;38.45
27587;BME280;15019;49.002;8.420;2022-07-29T13:02:37;99996.50;;;30.66;37.18
27587;BME280;15019;49.002;8.420;2022-07-29T13:05:04;100004.66;;;30.33;35.74
27587;BME280;15019;49.002;8.420;2022-07-29T13:07:31;99997.47;;;30.25;36.74
27587;BME280;15019;49.002;8.420;2022-07-29T13:10:16;100009.63;;;30.36;37.13
27587;BME280;15019;49.002;8.420;2022-07-29T13:13:04;100012.59;;;30.21;38.12
27587;BME280;15019;49.002;8.420;2022-07-29T13:15:30;100001.63;;;30.28;35.83
27587;BME280;15019;49.002;8.420;2022-07-29T13:17:56;100010.00;;;30.31;36.50
27587;BME280;15019;49.002;8.420;2022-07-29T13:20:24;100017.25;;;30.08;36.99
27587;BME280;15019;49.002;8.420;2022-07-29T13:22:50;100018.00;;;29.99;37.52
27587;BME280;15019;49.002;8.420;2022-07-29T13:25:27;100032.19;;;30.27;36.98
27587;BME280;15019;49.002;8.420;2022-07-29T13:27:53;100017.13;;;30.19;36.27
27587;BME280;15019;49.002;8.420;2022-07-29T13:30:19;100020.28;;;30.13;35.58
27587;BME280;15019;49.002;8.420;2022-07-29T13:32:45;100019.47;;;29.92;36.13
27587;BME280;15019;49.002;8.420;2022-07-29T13:35:10;100028.47;;;29.99;36.14
27587;BME280;15019;49.002;8.420;2022-07-29T13:37:35;100016.47;;;29.66;37.26
27587;BME280;15019;49.002;8.420;2022-07-29T13:40:02;100018.25;;;29.66;36.47
27587;BME280;15019;49.002;8.420;2022-07-29T13:42:28;100017.06;;;29.59;37.05